createdAt,value
2018-07-11T00:00:13.229Z,17.10
2018-07-11T00:05:27.002Z,17.00
2018-07-11T00:07:59.490Z,17.00
2018-07-11T00:10:29.761Z,17.00
2018-07-11T00:13:09.201Z,17.00
2018-07-11T00:15:38.735Z,17.00
2018-07-11T00:18:08.620Z,17.00
2018-07-11T00:20:46.233Z,16.90
2018-07-11T00:23:25.636Z,16.90
2018-07-11T00:25:56.277Z,16.90
2018-07-11T00:28:38.129Z,16.90
2018-07-11T00:31:10.942Z,16.90
2018-07-11T00:33:40.581Z,16.90
2018-07-11T00:36:10.227Z,16.90
2018-07-11T00:38:40.261Z,16.80
2018-07-11T00:41:11.347Z,16.80
2018-07-11T00:43:48.678Z,16.80
2018-07-11T00:46:20.729Z,16.70
2018-07-11T00:48:56.657Z,16.70
2018-07-11T00:51:27.440Z,16.70
2018-07-11T00:53:59.055Z,16.70
2018-07-11T00:56:32.398Z,16.60
2018-07-11T00:59:13.502Z,16.60
2018-07-11T01:01:48.773Z,16.70
2018-07-11T01:04:21.901Z,16.60
2018-07-11T01:06:54.905Z,16.60
2018-07-11T01:09:23.682Z,16.50
2018-07-11T01:11:57.765Z,16.50
2018-07-11T01:14:33.228Z,16.50
2018-07-11T01:17:10.158Z,16.50
2018-07-11T01:19:48.302Z,16.50
2018-07-11T01:22:18.085Z,16.40
2018-07-11T01:24:58.282Z,16.40
2018-07-11T01:27:28.341Z,16.40
2018-07-11T01:30:01.888Z,16.40
2018-07-11T01:32:36.838Z,16.40
2018-07-11T01:35:10.178Z,16.30
2018-07-11T01:37:39.237Z,16.30
2018-07-11T01:40:12.014Z,16.30
2018-07-11T01:42:46.023Z,16.30
2018-07-11T01:45:17.127Z,16.30
2018-07-11T01:47:50.364Z,16.30
2018-07-11T01:50:34.351Z,16.30
2018-07-11T01:53:03.985Z,16.20
2018-07-11T01:55:33.481Z,16.20
2018-07-11T01:58:13.805Z,16.20
2018-07-11T02:03:23.654Z,16.20
2018-07-11T02:05:58.971Z,16.20
2018-07-11T02:11:04.757Z,16.10
2018-07-11T02:13:37.155Z,16.10
2018-07-11T02:16:16.121Z,16.10
2018-07-11T02:18:54.474Z,16.00
2018-07-11T02:21:32.035Z,16.10
2018-07-11T02:24:04.238Z,16.00
2018-07-11T02:26:38.853Z,16.00
2018-07-11T02:29:08.421Z,16.00
2018-07-11T02:31:39.245Z,16.00
2018-07-11T02:34:10.653Z,15.90
2018-07-11T02:36:40.827Z,15.90
2018-07-11T02:39:10.014Z,15.90
2018-07-11T02:41:40.375Z,15.90
2018-07-11T02:44:10.737Z,15.90
2018-07-11T02:46:44.572Z,15.90
2018-07-11T02:49:14.549Z,15.90
2018-07-11T02:51:43.066Z,15.90
2018-07-11T02:54:12.330Z,15.90
2018-07-11T02:56:41.503Z,15.90
2018-07-11T02:59:10.255Z,15.90
2018-07-11T03:01:38.862Z,15.90
2018-07-11T03:04:08.422Z,15.90
2018-07-11T03:06:36.974Z,15.90
2018-07-11T03:09:05.604Z,15.80
2018-07-11T03:11:34.414Z,15.80
2018-07-11T03:14:04.378Z,15.80
2018-07-11T03:16:35.605Z,15.80
2018-07-11T03:19:04.177Z,15.80
2018-07-11T03:21:32.693Z,15.80
2018-07-11T03:24:01.210Z,15.70
2018-07-11T03:26:29.734Z,15.70
2018-07-11T03:28:59.230Z,15.70
2018-07-11T03:31:35.937Z,15.70
2018-07-11T03:36:35.279Z,15.70
2018-07-11T03:39:08.623Z,15.70
2018-07-11T03:41:39.590Z,15.70
2018-07-11T03:44:17.791Z,15.60
2018-07-11T03:46:54.189Z,15.60
2018-07-11T03:49:26.530Z,15.60
2018-07-11T03:51:56.682Z,15.60
2018-07-11T03:54:26.957Z,15.60
2018-07-11T03:56:56.709Z,15.60
2018-07-11T03:59:26.545Z,15.50
2018-07-11T04:01:58.989Z,15.50
2018-07-11T04:04:28.782Z,15.60
2018-07-11T04:07:09.050Z,15.60
2018-07-11T04:09:38.443Z,15.50
2018-07-11T04:12:07.609Z,15.50
2018-07-11T04:14:38.487Z,15.50
2018-07-11T04:17:08.335Z,15.50
2018-07-11T04:19:48.362Z,15.50
2018-07-11T04:22:19.157Z,15.50
2018-07-11T04:24:50.343Z,15.50
2018-07-11T04:27:20.108Z,15.50
2018-07-11T04:29:50.943Z,15.50
2018-07-11T04:32:20.550Z,15.50
2018-07-11T04:34:49.661Z,15.50
2018-07-11T04:37:18.221Z,15.50
2018-07-11T04:39:46.929Z,15.50
2018-07-11T04:42:15.531Z,15.50
2018-07-11T04:44:44.092Z,15.50
2018-07-11T04:47:12.854Z,15.50
2018-07-11T04:49:41.389Z,15.50
2018-07-11T04:52:09.920Z,15.50
2018-07-11T04:54:38.473Z,15.50
2018-07-11T04:57:07.055Z,15.50
2018-07-11T04:59:35.626Z,15.50
2018-07-11T05:02:04.164Z,15.50
2018-07-11T05:04:32.729Z,15.50
2018-07-11T05:07:01.266Z,15.50
2018-07-11T05:09:29.810Z,15.60
2018-07-11T05:11:58.911Z,15.60
2018-07-11T05:14:27.798Z,15.60
2018-07-11T05:16:57.466Z,15.60
2018-07-11T05:19:26.149Z,15.60
2018-07-11T05:21:55.062Z,15.60
2018-07-11T05:24:23.703Z,15.60
2018-07-11T05:26:53.928Z,15.60
2018-07-11T05:29:23.861Z,15.60
2018-07-11T05:31:52.881Z,15.70
2018-07-11T05:34:22.731Z,15.70
2018-07-11T05:36:53.420Z,15.70
2018-07-11T05:39:24.370Z,15.80
2018-07-11T05:44:22.649Z,15.80
2018-07-11T05:46:55.414Z,15.80
2018-07-11T05:49:24.646Z,15.80
2018-07-11T05:54:24.935Z,15.90
2018-07-11T05:56:53.840Z,15.90
2018-07-11T05:59:23.019Z,16.00
2018-07-11T06:01:51.546Z,16.00
2018-07-11T06:04:23.585Z,16.00
2018-07-11T06:06:54.669Z,16.10
2018-07-11T06:09:24.979Z,16.10
2018-07-11T06:11:56.542Z,16.10
2018-07-11T06:14:25.128Z,16.10
2018-07-11T06:16:53.917Z,16.20
2018-07-11T06:19:23.026Z,16.30
2018-07-11T06:21:51.951Z,16.30
2018-07-11T06:24:21.398Z,16.40
2018-07-11T06:26:50.044Z,16.50
2018-07-11T06:29:18.619Z,16.50
2018-07-11T06:31:47.237Z,16.50
2018-07-11T06:34:16.682Z,16.60
2018-07-11T06:36:46.667Z,16.60
2018-07-11T06:39:15.502Z,16.70
2018-07-11T06:41:44.210Z,16.70
2018-07-11T06:44:17.994Z,16.70
2018-07-11T06:46:46.578Z,16.80
2018-07-11T06:49:15.137Z,16.80
2018-07-11T06:51:44.481Z,16.90
2018-07-11T06:54:18.038Z,17.00
2018-07-11T06:56:46.588Z,17.00
2018-07-11T06:59:15.150Z,17.10
2018-07-11T07:01:48.343Z,17.10
2018-07-11T07:04:17.001Z,17.20
2018-07-11T07:06:45.941Z,17.20
2018-07-11T07:09:17.223Z,17.30
2018-07-11T07:11:47.806Z,17.30
2018-07-11T07:14:16.376Z,17.40
2018-07-11T07:16:44.917Z,17.50
2018-07-11T07:19:13.482Z,17.50
2018-07-11T07:21:43.870Z,17.70
2018-07-11T07:24:12.418Z,17.80
2018-07-11T07:26:41.714Z,17.90
2018-07-11T07:29:10.837Z,18.10
2018-07-11T07:31:40.451Z,18.10
2018-07-11T07:34:09.103Z,18.20
2018-07-11T07:36:37.637Z,18.30
2018-07-11T07:39:07.089Z,18.40
2018-07-11T07:41:36.956Z,18.60
2018-07-11T07:44:07.238Z,18.80
2018-07-11T07:46:35.770Z,19.00
2018-07-11T07:49:12.299Z,19.20
2018-07-11T07:51:40.966Z,19.40
2018-07-11T07:56:43.890Z,19.70
2018-07-11T07:59:12.888Z,19.60
2018-07-11T08:01:44.473Z,19.50
2018-07-11T08:04:19.758Z,19.40
2018-07-11T08:09:18.257Z,19.20
2018-07-11T08:11:48.426Z,19.10
2018-07-11T08:14:17.652Z,19.10
2018-07-11T08:16:46.367Z,19.10
2018-07-11T08:19:15.985Z,19.20
2018-07-11T08:21:44.774Z,19.20
2018-07-11T08:24:24.992Z,19.10
2018-07-11T08:27:09.798Z,19.00
2018-07-11T08:31:53.350Z,18.90
2018-07-11T08:34:32.315Z,18.90
2018-07-11T08:37:31.722Z,19.10
2018-07-11T08:42:20.806Z,19.10
2018-07-11T08:46:05.927Z,19.00
2018-07-11T08:49:44.656Z,19.10
2018-07-11T08:54:30.058Z,19.10
2018-07-11T08:59:31.118Z,19.20
2018-07-11T09:02:10.882Z,19.50
2018-07-11T09:06:57.188Z,19.90
2018-07-11T09:09:37.449Z,20.00
2018-07-11T09:12:24.710Z,20.00
2018-07-11T09:17:07.630Z,20.00
2018-07-11T09:19:49.828Z,20.00
2018-07-11T09:22:31.102Z,20.00
2018-07-11T09:25:01.784Z,20.00
2018-07-11T09:27:30.841Z,20.00
2018-07-11T09:29:59.739Z,19.90
2018-07-11T09:32:28.271Z,19.90
2018-07-11T09:34:56.813Z,19.80
2018-07-11T09:37:25.372Z,19.80
2018-07-11T09:39:53.940Z,19.70
2018-07-11T09:42:22.474Z,19.70
2018-07-11T09:44:51.035Z,19.70
2018-07-11T09:47:25.390Z,19.80
2018-07-11T09:49:55.144Z,20.00
2018-07-11T09:52:23.743Z,20.30
2018-07-11T09:54:52.549Z,20.60
2018-07-11T09:59:54.981Z,21.00
2018-07-11T10:02:23.590Z,21.10
2018-07-11T10:04:54.437Z,21.20
2018-07-11T10:07:23.812Z,21.40
2018-07-11T10:09:52.364Z,21.50
2018-07-11T10:14:49.233Z,21.60
2018-07-11T10:17:17.766Z,21.60
2018-07-11T10:19:46.366Z,21.50
2018-07-11T10:22:14.885Z,21.50
2018-07-11T10:24:43.481Z,21.60
2018-07-11T10:27:12.480Z,21.80
2018-07-11T10:29:41.039Z,21.90
2018-07-11T10:32:09.570Z,21.90
2018-07-11T10:34:38.105Z,21.90
2018-07-11T10:37:06.688Z,22.00
2018-07-11T10:39:35.236Z,21.90
2018-07-11T10:42:03.765Z,21.80
2018-07-11T10:44:32.314Z,21.90
2018-07-11T10:47:06.469Z,21.90
2018-07-11T10:49:35.099Z,21.90
2018-07-11T10:52:03.669Z,21.80
2018-07-11T10:54:32.200Z,21.70
2018-07-11T10:57:00.849Z,21.90
2018-07-11T10:59:29.740Z,21.90
2018-07-11T11:01:59.078Z,22.00
2018-07-11T11:04:27.646Z,22.10
2018-07-11T11:06:56.182Z,22.20
2018-07-11T11:09:24.903Z,22.10
2018-07-11T11:11:53.451Z,22.10
2018-07-11T11:14:22.716Z,22.10
2018-07-11T11:16:51.281Z,22.00
2018-07-11T11:19:19.818Z,21.90
2018-07-11T11:21:48.363Z,21.90
2018-07-11T11:24:16.923Z,21.80
2018-07-11T11:26:45.503Z,21.70
2018-07-11T11:29:14.696Z,21.60
2018-07-11T11:31:44.293Z,21.60
2018-07-11T11:34:12.965Z,21.50
2018-07-11T11:36:42.250Z,21.50
2018-07-11T11:39:10.848Z,21.30
2018-07-11T11:41:39.504Z,21.30
2018-07-11T11:44:07.934Z,21.30
2018-07-11T11:46:36.487Z,21.30
2018-07-11T11:49:05.090Z,21.30
2018-07-11T11:51:33.675Z,21.20
2018-07-11T11:54:02.225Z,21.30
2018-07-11T11:56:31.718Z,21.30
2018-07-11T11:59:00.366Z,21.20
2018-07-11T12:01:28.931Z,21.20
2018-07-11T12:03:57.518Z,21.30
2018-07-11T12:06:26.059Z,21.30
2018-07-11T12:08:54.684Z,21.30
2018-07-11T12:11:23.458Z,21.30
2018-07-11T12:13:52.321Z,21.30
2018-07-11T12:16:20.931Z,21.30
2018-07-11T12:18:50.081Z,21.40
2018-07-11T12:21:18.760Z,21.60
2018-07-11T12:23:47.311Z,21.80
2018-07-11T12:26:17.328Z,22.20
2018-07-11T12:28:45.886Z,22.50
2018-07-11T12:31:14.430Z,22.90
2018-07-11T12:33:42.997Z,23.30
2018-07-11T12:36:11.525Z,23.70
2018-07-11T12:38:40.125Z,23.90
2018-07-11T12:41:08.693Z,24.20
2018-07-11T12:43:37.448Z,24.30
2018-07-11T12:46:05.896Z,24.50
2018-07-11T12:48:39.691Z,24.60
2018-07-11T12:51:08.264Z,24.70
2018-07-11T12:53:36.806Z,24.70
2018-07-11T12:56:05.411Z,24.60
2018-07-11T13:01:02.222Z,24.40
2018-07-11T13:03:30.893Z,24.40
2018-07-11T13:05:59.682Z,24.50
2018-07-11T13:08:29.184Z,24.60
2018-07-11T13:10:57.758Z,24.70
2018-07-11T13:13:26.318Z,24.60
2018-07-11T13:15:54.962Z,24.50
2018-07-11T13:18:23.434Z,24.40
2018-07-11T13:20:52.030Z,24.30
2018-07-11T13:23:20.726Z,24.10
2018-07-11T13:25:49.282Z,23.80
2018-07-11T13:28:17.854Z,23.60
2018-07-11T13:30:46.435Z,23.40
2018-07-11T13:33:15.885Z,23.40
2018-07-11T13:35:44.455Z,23.20
2018-07-11T13:38:14.955Z,23.10
2018-07-11T13:40:43.958Z,23.00
2018-07-11T13:43:13.253Z,22.80
2018-07-11T13:45:42.403Z,22.70
2018-07-11T13:48:10.959Z,22.50
2018-07-11T13:50:39.502Z,22.40
2018-07-11T13:53:09.226Z,22.30
2018-07-11T13:55:38.437Z,22.30
2018-07-11T13:58:07.124Z,22.20
2018-07-11T14:00:35.700Z,22.10
2018-07-11T14:03:05.242Z,22.10
2018-07-11T14:05:33.878Z,22.00
2018-07-11T14:08:02.570Z,22.00
2018-07-11T14:10:31.178Z,22.00
2018-07-11T14:12:59.729Z,22.00
2018-07-11T14:15:28.274Z,22.00
2018-07-11T14:20:25.131Z,22.00
2018-07-11T14:22:53.646Z,22.00
2018-07-11T14:25:23.204Z,22.00
2018-07-11T14:27:51.762Z,21.90
2018-07-11T14:30:24.343Z,22.00
2018-07-11T14:32:56.578Z,22.00
2018-07-11T14:35:26.408Z,22.10
2018-07-11T14:37:54.942Z,22.10
2018-07-11T14:40:23.495Z,22.20
2018-07-11T14:42:52.059Z,22.30
2018-07-11T14:45:20.575Z,22.30
2018-07-11T14:47:54.410Z,22.30
2018-07-11T14:50:22.998Z,22.30
2018-07-11T14:52:52.422Z,22.30
2018-07-11T14:55:21.257Z,22.30
2018-07-11T14:57:50.262Z,22.30
2018-07-11T15:00:18.804Z,22.30
2018-07-11T15:02:47.378Z,22.30
2018-07-11T15:05:15.949Z,22.20
2018-07-11T15:07:44.522Z,22.30
2018-07-11T15:10:13.054Z,22.20
2018-07-11T15:12:41.634Z,22.20
2018-07-11T15:15:10.179Z,22.20
2018-07-11T15:17:39.017Z,22.30
2018-07-11T15:20:08.535Z,22.20
2018-07-11T15:22:37.112Z,22.20
2018-07-11T15:25:06.741Z,22.10
2018-07-11T15:27:35.419Z,22.10
2018-07-11T15:30:03.952Z,22.00
2018-07-11T15:32:33.102Z,22.00
2018-07-11T15:35:01.598Z,22.00
2018-07-11T15:37:30.168Z,22.00
2018-07-11T15:39:59.125Z,21.90
2018-07-11T15:42:27.682Z,21.90
2018-07-11T15:44:56.501Z,21.90
2018-07-11T15:47:25.356Z,21.90
2018-07-11T15:49:54.507Z,21.90
2018-07-11T15:52:24.728Z,21.90
2018-07-11T15:54:58.298Z,21.90
2018-07-11T15:57:39.298Z,21.90
2018-07-11T16:00:10.082Z,21.80
2018-07-11T16:02:42.610Z,21.80
2018-07-11T16:05:13.473Z,21.80
2018-07-11T16:07:45.194Z,21.80
2018-07-11T16:10:14.779Z,21.80
2018-07-11T16:12:43.418Z,21.80
2018-07-11T16:15:12.704Z,21.70
2018-07-11T16:17:41.275Z,21.70
2018-07-11T16:20:09.855Z,21.70
2018-07-11T16:22:38.409Z,21.70
2018-07-11T16:25:07.170Z,21.70
2018-07-11T16:27:35.727Z,21.70
2018-07-11T16:30:05.330Z,21.70
2018-07-11T16:32:34.556Z,21.60
2018-07-11T16:35:03.551Z,21.60
2018-07-11T16:37:32.716Z,21.60
2018-07-11T16:40:01.250Z,21.60
2018-07-11T16:42:29.810Z,21.60
2018-07-11T16:44:58.353Z,21.50
2018-07-11T16:47:29.210Z,21.60
2018-07-11T16:49:57.770Z,21.50
2018-07-11T16:52:26.306Z,21.50
2018-07-11T16:54:54.886Z,21.50
2018-07-11T16:57:27.900Z,21.50
2018-07-11T17:00:07.078Z,21.40
2018-07-11T17:02:35.726Z,21.40
2018-07-11T17:05:05.753Z,21.30
2018-07-11T17:07:45.918Z,21.30
2018-07-11T17:10:15.730Z,21.30
2018-07-11T17:12:47.090Z,21.20
2018-07-11T17:15:15.854Z,21.20
2018-07-11T17:17:44.502Z,21.20
2018-07-11T17:20:13.050Z,21.20
2018-07-11T17:22:52.697Z,21.20
2018-07-11T17:25:21.775Z,21.10
2018-07-11T17:28:01.517Z,21.20
2018-07-11T17:30:35.009Z,21.30
2018-07-11T17:33:04.818Z,21.40
2018-07-11T17:36:02.374Z,21.50
2018-07-11T17:38:31.910Z,21.50
2018-07-11T17:41:02.527Z,21.40
2018-07-11T17:43:36.980Z,21.30
2018-07-11T17:46:06.266Z,21.20
2018-07-11T17:48:46.018Z,21.00
2018-07-11T17:52:08.641Z,21.00
2018-07-11T17:55:18.538Z,20.90
2018-07-11T17:58:00.051Z,20.90
2018-07-11T18:00:49.418Z,20.80
2018-07-11T18:05:39.139Z,20.80
2018-07-11T18:08:11.000Z,20.70
2018-07-11T18:10:51.501Z,20.60
2018-07-11T18:13:32.470Z,20.70
2018-07-11T18:17:11.777Z,20.60
2018-07-11T18:19:59.717Z,20.60
2018-07-11T18:23:40.104Z,20.60
2018-07-11T18:27:23.386Z,20.60
2018-07-11T18:30:18.963Z,20.50
2018-07-11T18:34:58.059Z,20.50
2018-07-11T18:38:08.992Z,20.40
2018-07-11T18:41:21.404Z,20.40
2018-07-11T18:44:14.534Z,20.40
2018-07-11T18:48:27.700Z,20.30
2018-07-11T18:51:06.473Z,20.30
2018-07-11T18:55:31.392Z,20.30
2018-07-11T19:00:13.899Z,20.30
2018-07-11T19:02:49.459Z,20.30
2018-07-11T19:05:30.030Z,20.20
2018-07-11T19:08:13.930Z,20.20
2018-07-11T19:10:51.318Z,20.20
2018-07-11T19:13:42.966Z,20.10
2018-07-11T19:16:18.260Z,20.10
2018-07-11T19:19:07.232Z,20.10
2018-07-11T19:22:43.962Z,20.10
2018-07-11T19:25:25.167Z,20.10
2018-07-11T19:28:03.806Z,20.00
2018-07-11T19:30:43.351Z,20.00
2018-07-11T19:33:27.407Z,20.00
2018-07-11T19:36:11.849Z,20.00
2018-07-11T19:38:47.393Z,20.00
2018-07-11T19:41:25.023Z,20.00
2018-07-11T19:44:09.794Z,20.00
2018-07-11T19:46:52.020Z,20.00
2018-07-11T19:49:34.800Z,19.90
2018-07-11T19:52:14.208Z,19.90
2018-07-11T19:55:05.687Z,19.90
2018-07-11T19:57:34.258Z,19.90
2018-07-11T20:00:02.837Z,19.90
2018-07-11T20:02:31.458Z,19.90
2018-07-11T20:05:00.290Z,19.90
2018-07-11T20:07:28.847Z,19.90
2018-07-11T20:09:57.441Z,19.90
2018-07-11T20:12:25.994Z,19.90
2018-07-11T20:14:55.245Z,19.90
2018-07-11T20:17:23.782Z,19.90
2018-07-11T20:19:52.342Z,19.90
2018-07-11T20:22:20.909Z,19.90
2018-07-11T20:24:49.448Z,19.80
2018-07-11T20:27:18.018Z,19.90
2018-07-11T20:29:46.955Z,19.80
2018-07-11T20:34:43.783Z,19.80
2018-07-11T20:37:12.338Z,19.80
2018-07-11T20:39:41.587Z,19.80
2018-07-11T20:42:10.965Z,19.80
2018-07-11T20:44:39.549Z,19.80
2018-07-11T20:47:08.478Z,19.80
2018-07-11T20:49:37.712Z,19.70
2018-07-11T20:52:07.018Z,19.80
2018-07-11T20:54:35.837Z,19.70
2018-07-11T20:57:04.360Z,19.70
2018-07-11T20:59:44.511Z,19.70
2018-07-11T21:03:00.294Z,19.70
2018-07-11T21:05:40.650Z,19.70
2018-07-11T21:08:35.821Z,19.70
2018-07-11T21:11:25.671Z,19.70
2018-07-11T21:14:05.758Z,19.70
2018-07-11T21:16:45.070Z,19.70
2018-07-11T21:19:13.675Z,19.70
2018-07-11T21:21:43.065Z,19.60
2018-07-11T21:24:12.509Z,19.60
2018-07-11T21:26:41.034Z,19.60
2018-07-11T21:29:09.895Z,19.60
2018-07-11T21:31:39.489Z,19.60
2018-07-11T21:34:08.060Z,19.60
2018-07-11T21:36:37.493Z,19.50
2018-07-11T21:39:06.441Z,19.50
2018-07-11T21:41:35.102Z,19.50
2018-07-11T21:44:03.650Z,19.50
2018-07-11T21:46:32.185Z,19.50
2018-07-11T21:49:00.723Z,19.50
2018-07-11T21:51:30.258Z,19.50
2018-07-11T21:53:58.797Z,19.50
2018-07-11T21:56:27.353Z,19.40
2018-07-11T21:58:55.878Z,19.40
2018-07-11T22:01:24.447Z,19.30
2018-07-11T22:03:52.977Z,19.30
2018-07-11T22:06:21.506Z,19.30
2018-07-11T22:08:50.659Z,19.30
2018-07-11T22:11:19.201Z,19.30
2018-07-11T22:13:48.515Z,19.20
2018-07-11T22:16:17.126Z,19.20
2018-07-11T22:18:46.449Z,19.20
2018-07-11T22:21:14.905Z,19.20
2018-07-11T22:23:42.315Z,19.20
2018-07-11T22:26:10.694Z,19.20
2018-07-11T22:28:38.328Z,19.20
2018-07-11T22:31:05.737Z,19.20
2018-07-11T22:33:33.135Z,19.10
2018-07-11T22:36:00.541Z,19.10
2018-07-11T22:38:27.937Z,19.10
2018-07-11T22:40:55.317Z,19.10
2018-07-11T22:43:22.716Z,19.10
2018-07-11T22:45:50.101Z,19.10
2018-07-11T22:48:17.841Z,19.00
2018-07-11T22:50:45.272Z,19.00
2018-07-11T22:53:13.024Z,19.00
2018-07-11T22:55:40.441Z,19.00
2018-07-11T22:58:07.877Z,19.00
2018-07-11T23:00:35.255Z,19.00
2018-07-11T23:03:02.626Z,19.00
2018-07-11T23:05:30.013Z,18.90
2018-07-11T23:07:57.485Z,19.00
2018-07-11T23:10:25.390Z,19.00
2018-07-11T23:12:53.241Z,18.90
2018-07-11T23:15:20.619Z,18.90
2018-07-11T23:17:48.010Z,18.90
2018-07-11T23:20:15.401Z,18.90
2018-07-11T23:22:42.781Z,18.90
2018-07-11T23:25:10.272Z,18.90
2018-07-11T23:27:37.665Z,18.90
2018-07-11T23:30:05.041Z,18.80
2018-07-11T23:32:32.437Z,18.80
2018-07-11T23:34:59.817Z,18.80
2018-07-11T23:37:27.197Z,18.80
2018-07-11T23:39:54.806Z,18.80
2018-07-11T23:42:22.188Z,18.80
2018-07-11T23:44:49.592Z,18.80
2018-07-11T23:47:16.969Z,18.80
2018-07-11T23:49:44.350Z,18.80
2018-07-11T23:52:11.962Z,18.80
2018-07-11T23:54:39.337Z,18.80
2018-07-11T23:57:06.756Z,18.70
2018-07-11T23:59:34.149Z,18.70
